Time;durP1;ratioP1;P1;durP2;ratioP2;P2;SDS_P1;SDS_P2;PMS_P1;PMS_P2;Temp;Humidity;BMP_temperature;BMP_pressure;BME280_temperature;BME280_humidity;BME280_pressure;Samples;Min_cycle;Max_cycle;Signal;HPM_P1;HPM_P2
2023/06/22 00:00:58;;;;;;;;;;;18.20;99.90;;;;;;8333924;28;19935;-81
2023/06/22 00:04:59;;;;;;;;;;;18.10;99.90;;;;;;8328987;28;20300;-81
2023/06/22 00:08:59;;;;;;;;;;;18.00;99.90;;;;;;8337600;28;19927;-81
2023/06/22 00:13:00;;;;;;;;;;;17.90;99.90;;;;;;8355916;28;19913;-82
2023/06/22 00:17:00;;;;;;;;;;;17.90;99.90;;;;;;8355137;28;19924;-81
2023/06/22 00:25:40;;;;;;;;;;;17.70;99.90;;;;;;8295968;28;19951;-81
2023/06/22 00:29:40;;;;;;;;;;;17.70;99.90;;;;;;8282232;28;19917;-80
2023/06/22 00:33:40;;;;;;;;;;;17.70;99.90;;;;;;8278477;28;20000;-81
2023/06/22 00:37:42;;;;;;;;;;;17.70;99.90;;;;;;8286686;28;19910;-81
2023/06/22 00:41:42;;;;;;;;;;;17.70;99.90;;;;;;8268847;28;19914;-82
2023/06/22 00:45:43;;;;;;;;;;;17.70;99.90;;;;;;8291911;28;19979;-80
2023/06/22 00:49:43;;;;;;;;;;;17.90;99.90;;;;;;8290554;28;19922;-80
2023/06/22 00:53:44;;;;;;;;;;;18.30;99.90;;;;;;8289950;28;19921;-80
2023/06/22 00:57:48;;;;;;;;;;;17.80;99.90;;;;;;8273509;28;20367;-81
2023/06/22 01:01:49;;;;;;;;;;;17.40;99.90;;;;;;8288874;28;19997;-80
2023/06/22 01:05:49;;;;;;;;;;;18.00;99.90;;;;;;8290510;28;20306;-81
2023/06/22 01:10:16;;;;;;;;;;;17.80;99.90;;;;;;8291504;28;20463;-81
2023/06/22 01:14:25;;;;;;;;;;;17.50;99.90;;;;;;8285945;28;19917;-82
2023/06/22 01:18:27;;;;;;;;;;;17.20;99.90;;;;;;8300014;28;19976;-81
2023/06/22 01:22:30;;;;;;;;;;;17.40;99.90;;;;;;8289376;28;19914;-81
2023/06/22 01:26:49;;;;;;;;;;;17.40;99.90;;;;;;8290445;28;20479;-82
2023/06/22 01:31:00;;;;;;;;;;;17.30;99.90;;;;;;8290728;28;19939;-80
2023/06/22 01:35:03;;;;;;;;;;;17.00;99.90;;;;;;8290796;28;19918;-82
2023/06/22 01:39:04;;;;;;;;;;;16.70;99.90;;;;;;8284369;28;19948;-81
2023/06/22 01:43:05;;;;;;;;;;;17.30;99.90;;;;;;8281538;28;19925;-81
2023/06/22 01:47:06;;;;;;;;;;;17.20;99.90;;;;;;8282300;28;19921;-81
2023/06/22 01:51:07;;;;;;;;;;;17.20;99.90;;;;;;8289774;28;20194;-80
2023/06/22 01:55:08;;;;;;;;;;;17.30;99.90;;;;;;8287565;28;20444;-81
2023/06/22 01:59:08;;;;;;;;;;;16.90;99.90;;;;;;8271943;28;19935;-79
2023/06/22 02:03:11;;;;;;;;;;;16.50;99.90;;;;;;8285976;28;19945;-82
2023/06/22 02:07:13;;;;;;;;;;;16.60;99.90;;;;;;8288729;28;19921;-81
2023/06/22 02:11:16;;;;;;;;;;;16.50;99.90;;;;;;8289221;28;19929;-81
2023/06/22 02:15:17;;;;;;;;;;;17.30;99.90;;;;;;8288199;28;19913;-81
2023/06/22 02:19:22;;;;;;;;;;;16.60;99.90;;;;;;8289340;28;19913;-80
2023/06/22 02:23:22;;;;;;;;;;;16.60;99.90;;;;;;8276535;28;20191;-80
2023/06/22 02:27:23;;;;;;;;;;;16.40;99.90;;;;;;8289378;28;19921;-82
2023/06/22 02:31:30;;;;;;;;;;;16.50;99.90;;;;;;8287776;28;19973;-80
2023/06/22 02:35:35;;;;;;;;;;;16.30;99.90;;;;;;8304330;28;20467;-82
2023/06/22 02:39:35;;;;;;;;;;;16.30;99.90;;;;;;8288450;28;19910;-81
2023/06/22 02:43:36;;;;;;;;;;;16.40;99.90;;;;;;8286996;28;19976;-80
2023/06/22 02:47:36;;;;;;;;;;;16.20;99.90;;;;;;8287021;28;19916;-81
2023/06/22 02:51:42;;;;;;;;;;;16.00;99.90;;;;;;8286189;28;19913;-81
2023/06/22 02:55:42;;;;;;;;;;;16.20;99.90;;;;;;8285795;28;20013;-81
2023/06/22 02:59:43;;;;;;;;;;;16.10;99.90;;;;;;8286439;28;19913;-81
2023/06/22 03:03:43;;;;;;;;;;;16.00;99.90;;;;;;8284723;28;19943;-80
2023/06/22 03:07:44;;;;;;;;;;;16.00;99.90;;;;;;8284458;28;19918;-81
2023/06/22 03:11:45;;;;;;;;;;;16.10;99.90;;;;;;8285022;28;19964;-81
2023/06/22 03:15:45;;;;;;;;;;;15.90;99.90;;;;;;8284786;28;19918;-80
2023/06/22 03:19:46;;;;;;;;;;;16.20;99.90;;;;;;8284871;28;19945;-79
2023/06/22 03:23:46;;;;;;;;;;;15.80;99.90;;;;;;8284010;28;20428;-80
2023/06/22 03:27:48;;;;;;;;;;;15.80;99.90;;;;;;8286216;28;19909;-81
2023/06/22 03:31:48;;;;;;;;;;;16.40;99.90;;;;;;8283620;28;19917;-80
2023/06/22 03:35:49;;;;;;;;;;;15.80;99.90;;;;;;8284376;28;19913;-80
2023/06/22 03:39:50;;;;;;;;;;;15.90;99.90;;;;;;8286096;28;20012;-79
2023/06/22 03:43:50;;;;;;;;;;;16.20;99.90;;;;;;8284169;28;20345;-79
2023/06/22 03:47:51;;;;;;;;;;;16.20;99.90;;;;;;8284648;28;20303;-81
2023/06/22 03:51:51;;;;;;;;;;;16.30;99.90;;;;;;8286159;28;20437;-80
2023/06/22 03:55:52;;;;;;;;;;;16.30;99.90;;;;;;8298320;28;19952;-80
2023/06/22 03:59:53;;;;;;;;;;;16.10;99.90;;;;;;8305007;28;20277;-80
2023/06/22 04:03:54;;;;;;;;;;;16.10;99.90;;;;;;8280434;28;19921;-79
2023/06/22 04:07:54;;;;;;;;;;;16.30;99.90;;;;;;8302044;28;20271;-80
2023/06/22 04:11:55;;;;;;;;;;;16.70;99.90;;;;;;8273045;28;20309;-81
2023/06/22 04:15:55;;;;;;;;;;;17.10;99.90;;;;;;8287026;28;20072;-80
2023/06/22 04:19:56;;;;;;;;;;;17.20;99.90;;;;;;8309331;28;19913;-81
2023/06/22 04:23:56;;;;;;;;;;;17.00;99.90;;;;;;8296487;28;19917;-82
2023/06/22 04:27:57;;;;;;;;;;;17.10;99.90;;;;;;8305514;28;19915;-81
2023/06/22 04:31:58;;;;;;;;;;;17.30;99.90;;;;;;8319171;28;19972;-82
2023/06/22 04:36:01;;;;;;;;;;;17.70;99.90;;;;;;8293126;28;19948;-82
2023/06/22 04:40:03;;;;;;;;;;;18.60;99.90;;;;;;8311065;28;19964;-81
2023/06/22 04:44:05;;;;;;;;;;;19.10;99.90;;;;;;8290485;28;19920;-81
2023/06/22 04:48:05;;;;;;;;;;;18.90;99.90;;;;;;8304663;28;20297;-81
2023/06/22 04:52:07;;;;;;;;;;;19.60;99.90;;;;;;8293798;28;19920;-81
2023/06/22 04:56:08;;;;;;;;;;;19.80;99.90;;;;;;8313290;28;19948;-81
2023/06/22 05:00:17;;;;;;;;;;;20.30;99.90;;;;;;8306102;28;19936;-82
2023/06/22 05:04:17;;;;;;;;;;;20.70;99.90;;;;;;8292960;28;19913;-82
2023/06/22 05:08:18;;;;;;;;;;;21.50;99.90;;;;;;8309572;28;20517;-82
2023/06/22 05:12:18;;;;;;;;;;;21.40;99.90;;;;;;8301692;28;19921;-82
2023/06/22 05:16:23;;;;;;;;;;;21.20;99.90;;;;;;8294600;28;20404;-82
2023/06/22 05:20:24;;;;;;;;;;;21.90;99.90;;;;;;8288563;28;19913;-81
2023/06/22 05:24:24;;;;;;;;;;;22.20;99.90;;;;;;8301338;28;19925;-80
2023/06/22 05:28:25;;;;;;;;;;;21.40;99.90;;;;;;8293807;28;20052;-82
2023/06/22 05:32:25;;;;;;;;;;;21.80;99.90;;;;;;8301371;28;19932;-83
2023/06/22 05:36:26;;;;;;;;;;;22.40;99.90;;;;;;8290258;28;19917;-80
2023/06/22 05:40:27;;;;;;;;;;;22.20;99.90;;;;;;8282058;28;19952;-80
2023/06/22 05:44:27;;;;;;;;;;;22.80;99.90;;;;;;8281545;28;20582;-80
2023/06/22 05:48:27;;;;;;;;;;;22.90;99.90;;;;;;8283135;28;19916;-78
2023/06/22 05:52:28;;;;;;;;;;;22.80;99.90;;;;;;8297523;28;19917;-80
2023/06/22 05:56:28;;;;;;;;;;;23.10;99.90;;;;;;8293700;28;19979;-75
2023/06/22 06:00:29;;;;;;;;;;;23.50;99.90;;;;;;8298452;28;19991;-75
2023/06/22 06:04:29;;;;;;;;;;;23.80;99.90;;;;;;8273320;28;20410;-75
2023/06/22 06:08:30;;;;;;;;;;;24.20;99.90;;;;;;8289135;28;20297;-74
2023/06/22 06:12:30;;;;;;;;;;;24.70;99.90;;;;;;8304548;28;19910;-76
2023/06/22 06:16:31;;;;;;;;;;;24.60;99.90;;;;;;8298153;28;19921;-77
2023/06/22 06:20:32;;;;;;;;;;;25.20;99.90;;;;;;8298355;28;19909;-76
2023/06/22 06:24:32;;;;;;;;;;;25.40;99.90;;;;;;8290878;28;19967;-74
2023/06/22 06:28:33;;;;;;;;;;;26.00;99.90;;;;;;8276666;28;19949;-75
2023/06/22 06:32:34;;;;;;;;;;;25.90;99.90;;;;;;8284264;28;19928;-76
2023/06/22 06:36:34;;;;;;;;;;;25.70;99.90;;;;;;8291170;28;20193;-75
2023/06/22 06:40:35;;;;;;;;;;;26.10;99.90;;;;;;8274910;28;20064;-76
2023/06/22 06:44:37;;;;;;;;;;;26.50;99.90;;;;;;8293577;28;19922;-76
2023/06/22 06:48:37;;;;;;;;;;;27.20;99.90;;;;;;8285643;28;20005;-75
2023/06/22 06:52:38;;;;;;;;;;;27.70;99.90;;;;;;8280774;28;20567;-75
2023/06/22 06:56:38;;;;;;;;;;;27.20;99.90;;;;;;8280984;28;20495;-75
2023/06/22 07:00:39;;;;;;;;;;;27.30;99.90;;;;;;8285008;28;20421;-75
2023/06/22 07:04:39;;;;;;;;;;;27.40;99.90;;;;;;8297204;28;20389;-75
2023/06/22 07:08:40;;;;;;;;;;;27.30;99.90;;;;;;8303838;28;19917;-76
2023/06/22 07:12:40;;;;;;;;;;;27.30;99.90;;;;;;8285123;28;19917;-75
2023/06/22 07:16:41;;;;;;;;;;;28.10;99.90;;;;;;8277732;28;19917;-76
2023/06/22 07:20:41;;;;;;;;;;;28.80;99.90;;;;;;8278379;28;19924;-76
2023/06/22 07:24:42;;;;;;;;;;;29.10;99.90;;;;;;8274800;28;19976;-75
2023/06/22 07:28:42;;;;;;;;;;;29.20;99.90;;;;;;8280320;28;19948;-76
2023/06/22 07:32:43;;;;;;;;;;;29.60;99.90;;;;;;8278829;28;19932;-76
2023/06/22 07:36:43;;;;;;;;;;;29.50;99.90;;;;;;8276242;28;20493;-75
2023/06/22 07:40:45;;;;;;;;;;;29.70;99.90;;;;;;8277269;28;19960;-76
2023/06/22 07:44:45;;;;;;;;;;;29.50;99.90;;;;;;8278165;28;20567;-76
2023/06/22 07:48:46;;;;;;;;;;;30.10;99.90;;;;;;8277494;28;19968;-76
2023/06/22 07:52:47;;;;;;;;;;;29.90;99.90;;;;;;8278560;28;19917;-75
2023/06/22 07:56:48;;;;;;;;;;;30.20;99.90;;;;;;8278778;28;19916;-77
2023/06/22 08:00:49;;;;;;;;;;;30.40;99.90;;;;;;8279716;28;20466;-77
2023/06/22 08:04:49;;;;;;;;;;;30.90;99.90;;;;;;8275647;28;20009;-76
2023/06/22 08:08:53;;;;;;;;;;;31.30;99.90;;;;;;8271650;28;19917;-76
2023/06/22 08:12:54;;;;;;;;;;;31.70;99.90;;;;;;8277947;28;19972;-76
2023/06/22 08:16:54;;;;;;;;;;;31.40;99.90;;;;;;8277529;28;19956;-77
2023/06/22 08:20:55;;;;;;;;;;;31.20;99.90;;;;;;8277616;28;19918;-76
2023/06/22 08:24:55;;;;;;;;;;;31.30;99.90;;;;;;8278328;28;19914;-77
2023/06/22 08:28:55;;;;;;;;;;;31.30;99.90;;;;;;8277509;28;19943;-76
2023/06/22 08:32:56;;;;;;;;;;;31.60;99.90;;;;;;8273160;28;19956;-77
2023/06/22 08:36:56;;;;;;;;;;;31.80;99.90;;;;;;8274501;28;20016;-76
2023/06/22 08:40:57;;;;;;;;;;;32.00;99.90;;;;;;8273496;28;19913;-76
2023/06/22 08:44:58;;;;;;;;;;;32.30;99.90;;;;;;8305353;28;19921;-77
2023/06/22 08:48:59;;;;;;;;;;;32.30;99.90;;;;;;8278910;28;20115;-77
2023/06/22 08:52:59;;;;;;;;;;;32.80;99.90;;;;;;8278743;28;19913;-77
2023/06/22 08:57:00;;;;;;;;;;;32.90;99.90;;;;;;8279367;28;19972;-76
2023/06/22 09:01:01;;;;;;;;;;;32.90;99.90;;;;;;8298864;28;19920;-76
2023/06/22 09:05:03;;;;;;;;;;;33.40;99.90;;;;;;8284591;28;19910;-77
2023/06/22 09:09:03;;;;;;;;;;;33.90;99.90;;;;;;8283626;28;19941;-77
2023/06/22 09:13:04;;;;;;;;;;;33.80;99.90;;;;;;8278964;28;20358;-77
2023/06/22 09:17:04;;;;;;;;;;;33.10;99.90;;;;;;8283116;28;19916;-77
2023/06/22 09:21:05;;;;;;;;;;;32.50;99.90;;;;;;8277886;28;19921;-77
2023/06/22 09:25:05;;;;;;;;;;;32.40;99.90;;;;;;8269581;28;19925;-76
2023/06/22 09:29:06;;;;;;;;;;;31.80;99.90;;;;;;8281126;28;19924;-77
2023/06/22 09:33:06;;;;;;;;;;;31.50;99.90;;;;;;8279179;28;19936;-76
2023/06/22 09:37:07;;;;;;;;;;;32.30;99.90;;;;;;8281683;28;19921;-77
2023/06/22 09:41:07;;;;;;;;;;;33.00;99.90;;;;;;8280603;28;19920;-77
2023/06/22 09:45:08;;;;;;;;;;;32.90;99.90;;;;;;8279888;28;20314;-76
2023/06/22 09:49:08;;;;;;;;;;;33.20;99.90;;;;;;8281818;28;19917;-77
2023/06/22 09:53:08;;;;;;;;;;;33.10;99.90;;;;;;8281531;28;19929;-76
2023/06/22 09:57:09;;;;;;;;;;;33.50;99.90;;;;;;8279499;28;19913;-76
2023/06/22 10:01:10;;;;;;;;;;;32.50;99.90;;;;;;8279409;28;19924;-76
2023/06/22 10:05:10;;;;;;;;;;;31.60;99.90;;;;;;8279470;28;19920;-76
2023/06/22 10:09:11;;;;;;;;;;;31.70;99.90;;;;;;8280059;28;20162;-77
2023/06/22 10:13:11;;;;;;;;;;;32.40;99.90;;;;;;8278345;28;19914;-76
2023/06/22 10:17:12;;;;;;;;;;;32.50;99.90;;;;;;8279246;28;19910;-76
2023/06/22 10:21:12;;;;;;;;;;;32.60;99.90;;;;;;8294192;28;19913;-77
2023/06/22 10:25:13;;;;;;;;;;;32.40;99.90;;;;;;8298119;28;19998;-76
2023/06/22 10:29:14;;;;;;;;;;;32.50;99.90;;;;;;8291524;28;19924;-76
2023/06/22 10:33:14;;;;;;;;;;;32.90;99.90;;;;;;8279603;28;20004;-76
2023/06/22 10:37:14;;;;;;;;;;;33.30;99.90;;;;;;8279421;28;19917;-76
2023/06/22 10:41:16;;;;;;;;;;;33.70;99.90;;;;;;8279437;28;20447;-77
2023/06/22 10:45:16;;;;;;;;;;;34.30;99.90;;;;;;8273031;28;19929;-76
2023/06/22 10:49:17;;;;;;;;;;;34.80;99.90;;;;;;8276335;28;20003;-77
2023/06/22 10:53:17;;;;;;;;;;;35.20;99.90;;;;;;8278167;28;19913;-77
2023/06/22 10:57:18;;;;;;;;;;;35.40;99.90;;;;;;8276854;28;19972;-77
2023/06/22 11:01:20;;;;;;;;;;;35.80;99.90;;;;;;8277272;28;19968;-77
2023/06/22 11:05:20;;;;;;;;;;;35.80;99.90;;;;;;8277142;28;20384;-76
2023/06/22 11:09:21;;;;;;;;;;;36.30;99.40;;;;;;8278261;28;19917;-77
2023/06/22 11:13:21;;;;;;;;;;;36.60;96.80;;;;;;8279551;28;19913;-76
2023/06/22 11:17:22;;;;;;;;;;;36.40;96.10;;;;;;8279038;28;20571;-77
2023/06/22 11:21:22;;;;;;;;;;;36.40;94.90;;;;;;8279475;28;19913;-77
2023/06/22 11:25:22;;;;;;;;;;;37.00;94.40;;;;;;8277521;28;19909;-77
2023/06/22 11:29:23;;;;;;;;;;;37.40;95.10;;;;;;8276607;28;19987;-77
2023/06/22 11:33:23;;;;;;;;;;;38.10;91.80;;;;;;8278293;28;20504;-77
2023/06/22 11:37:24;;;;;;;;;;;38.40;91.80;;;;;;8279012;28;19924;-78
2023/06/22 11:41:24;;;;;;;;;;;38.70;90.80;;;;;;8276749;28;19924;-77
2023/06/22 11:45:25;;;;;;;;;;;38.90;88.20;;;;;;8276750;28;19971;-77
2023/06/22 11:49:25;;;;;;;;;;;40.40;85.90;;;;;;8278625;28;19936;-77
2023/06/22 11:53:26;;;;;;;;;;;40.90;79.00;;;;;;8277494;28;20020;-77
2023/06/22 11:57:27;;;;;;;;;;;39.70;82.10;;;;;;8269840;28;20463;-77
2023/06/22 12:01:27;;;;;;;;;;;38.80;81.70;;;;;;8277811;28;19913;-76
2023/06/22 12:05:27;;;;;;;;;;;37.20;87.90;;;;;;8275841;28;19941;-76
2023/06/22 12:09:28;;;;;;;;;;;36.90;88.60;;;;;;8274600;28;19929;-76
2023/06/22 12:13:28;;;;;;;;;;;37.40;87.10;;;;;;8289098;28;19913;-76
2023/06/22 12:17:30;;;;;;;;;;;36.80;90.20;;;;;;8277326;28;20584;-77
2023/06/22 12:21:30;;;;;;;;;;;35.80;90.70;;;;;;8278547;28;20014;-76
2023/06/22 12:25:30;;;;;;;;;;;35.80;91.90;;;;;;8278024;28;19913;-76
2023/06/22 12:29:31;;;;;;;;;;;35.00;93.30;;;;;;8278380;28;20519;-77
2023/06/22 12:33:31;;;;;;;;;;;34.60;93.60;;;;;;8278777;28;19925;-77
2023/06/22 12:37:32;;;;;;;;;;;35.20;92.70;;;;;;8277728;28;20103;-77
2023/06/22 12:41:32;;;;;;;;;;;36.20;92.30;;;;;;8283966;28;20554;-76
2023/06/22 12:45:34;;;;;;;;;;;36.20;91.40;;;;;;8283126;28;19914;-77
2023/06/22 12:49:35;;;;;;;;;;;35.40;93.00;;;;;;8285241;28;19925;-76
2023/06/22 12:53:35;;;;;;;;;;;34.90;93.60;;;;;;8283290;28;19920;-76
2023/06/22 12:57:36;;;;;;;;;;;34.20;94.80;;;;;;8285270;28;19921;-77
2023/06/22 13:01:37;;;;;;;;;;;33.70;93.00;;;;;;8286148;28;20334;-78
2023/06/22 13:05:38;;;;;;;;;;;33.40;96.40;;;;;;8283689;28;19925;-77
2023/06/22 13:09:38;;;;;;;;;;;33.20;94.80;;;;;;8284941;28;19952;-78
2023/06/22 13:13:39;;;;;;;;;;;33.30;95.00;;;;;;8283112;28;20029;-78
2023/06/22 13:17:39;;;;;;;;;;;33.20;95.00;;;;;;8282093;28;19968;-77
2023/06/22 13:21:40;;;;;;;;;;;33.10;95.40;;;;;;8284501;28;19948;-77
2023/06/22 13:25:40;;;;;;;;;;;33.00;94.60;;;;;;8281539;28;20550;-78
2023/06/22 13:29:41;;;;;;;;;;;33.30;94.80;;;;;;8283961;28;19918;-77
2023/06/22 13:33:41;;;;;;;;;;;34.20;95.10;;;;;;8283506;28;19921;-77
2023/06/22 13:37:42;;;;;;;;;;;33.80;94.80;;;;;;8281922;28;20033;-78
2023/06/22 13:41:43;;;;;;;;;;;33.50;97.40;;;;;;8282971;28;19996;-77
2023/06/22 13:45:44;;;;;;;;;;;32.60;99.80;;;;;;8272503;28;19937;-78
2023/06/22 13:49:44;;;;;;;;;;;32.60;99.60;;;;;;8279512;28;19925;-78
2023/06/22 13:53:45;;;;;;;;;;;32.50;99.20;;;;;;8282726;28;19913;-78
2023/06/22 13:57:45;;;;;;;;;;;32.60;99.90;;;;;;8280976;28;19968;-78
2023/06/22 14:01:46;;;;;;;;;;;32.70;99.90;;;;;;8281336;28;19944;-78
2023/06/22 14:05:46;;;;;;;;;;;32.70;99.90;;;;;;8270570;28;20669;-78
2023/06/22 14:09:47;;;;;;;;;;;32.80;99.90;;;;;;8277071;28;19972;-78
2023/06/22 14:13:47;;;;;;;;;;;33.50;99.20;;;;;;8279836;28;19924;-76
2023/06/22 14:17:48;;;;;;;;;;;33.20;99.30;;;;;;8277503;28;19909;-78
2023/06/22 14:21:48;;;;;;;;;;;33.10;99.30;;;;;;8279477;28;19964;-78
2023/06/22 14:25:49;;;;;;;;;;;33.20;99.20;;;;;;8278967;28;20470;-77
2023/06/22 14:29:49;;;;;;;;;;;35.10;97.60;;;;;;8278843;28;20620;-77
2023/06/22 14:33:50;;;;;;;;;;;36.50;95.30;;;;;;8275182;28;19929;-77
2023/06/22 14:37:50;;;;;;;;;;;36.90;93.70;;;;;;8277282;28;20290;-77
2023/06/22 14:41:51;;;;;;;;;;;37.80;94.30;;;;;;8275276;28;19925;-78
2023/06/22 14:45:51;;;;;;;;;;;38.20;91.50;;;;;;8274895;28;19917;-77
2023/06/22 14:49:51;;;;;;;;;;;38.30;91.00;;;;;;8276158;28;19975;-77
2023/06/22 14:53:52;;;;;;;;;;;39.80;86.10;;;;;;8271865;28;19925;-77
2023/06/22 14:57:52;;;;;;;;;;;39.90;77.10;;;;;;8274170;28;19914;-78
2023/06/22 15:01:53;;;;;;;;;;;40.30;69.50;;;;;;8276506;28;19948;-77
2023/06/22 15:05:54;;;;;;;;;;;39.50;74.70;;;;;;8273989;28;19910;-77
2023/06/22 15:09:54;;;;;;;;;;;38.70;76.50;;;;;;8269413;28;19928;-77
2023/06/22 15:13:58;;;;;;;;;;;37.90;83.40;;;;;;8272342;28;19918;-77
2023/06/22 15:17:58;;;;;;;;;;;37.00;83.60;;;;;;8274240;28;19913;-77
2023/06/22 15:21:58;;;;;;;;;;;36.20;85.50;;;;;;8274226;28;19917;-78
2023/06/22 15:26:00;;;;;;;;;;;35.20;88.00;;;;;;8277582;28;19913;-77
2023/06/22 15:30:03;;;;;;;;;;;34.20;91.20;;;;;;8272559;28;19924;-77
2023/06/22 15:34:03;;;;;;;;;;;33.50;92.60;;;;;;8272193;28;19926;-77
2023/06/22 15:38:03;;;;;;;;;;;33.00;94.30;;;;;;8273639;28;19976;-78
2023/06/22 15:42:04;;;;;;;;;;;32.40;95.70;;;;;;8273264;28;19917;-77
2023/06/22 15:46:05;;;;;;;;;;;31.70;96.60;;;;;;8276633;28;19917;-76
2023/06/22 15:50:05;;;;;;;;;;;31.30;98.80;;;;;;8273434;28;20581;-77
2023/06/22 15:54:06;;;;;;;;;;;31.10;99.90;;;;;;8274340;28;19914;-76
2023/06/22 15:58:07;;;;;;;;;;;30.90;99.70;;;;;;8275906;28;19913;-77
2023/06/22 16:02:07;;;;;;;;;;;31.30;99.10;;;;;;8262970;28;19921;-77
2023/06/22 16:06:08;;;;;;;;;;;31.70;99.10;;;;;;8269394;28;19924;-76
2023/06/22 16:10:09;;;;;;;;;;;31.80;98.70;;;;;;8287536;28;20382;-77
2023/06/22 16:14:09;;;;;;;;;;;31.90;98.00;;;;;;8290688;28;19924;-77
2023/06/22 16:18:10;;;;;;;;;;;31.90;99.90;;;;;;8290572;28;20518;-77
2023/06/22 16:22:10;;;;;;;;;;;31.90;99.90;;;;;;8277458;28;19932;-77
2023/06/22 16:26:11;;;;;;;;;;;31.80;99.00;;;;;;8276283;28;19913;-77
2023/06/22 16:30:11;;;;;;;;;;;31.40;99.90;;;;;;8268102;28;20024;-77
2023/06/22 16:34:12;;;;;;;;;;;31.30;99.90;;;;;;8284523;28;19936;-78
2023/06/22 16:38:12;;;;;;;;;;;31.30;99.90;;;;;;8283202;28;19917;-77
2023/06/22 16:42:13;;;;;;;;;;;31.60;99.60;;;;;;8290246;28;19917;-77
2023/06/22 16:46:13;;;;;;;;;;;31.80;99.70;;;;;;8280553;28;20270;-77
2023/06/22 16:50:14;;;;;;;;;;;32.10;99.60;;;;;;8278259;28;19921;-77
2023/06/22 16:54:15;;;;;;;;;;;32.00;99.70;;;;;;8277601;28;20412;-77
2023/06/22 16:58:17;;;;;;;;;;;31.80;99.00;;;;;;8280954;28;20066;-77
2023/06/22 17:02:18;;;;;;;;;;;31.60;99.60;;;;;;8280283;28;19922;-77
2023/06/22 17:06:19;;;;;;;;;;;31.60;99.40;;;;;;8281452;28;20011;-77
2023/06/22 17:10:22;;;;;;;;;;;31.40;98.80;;;;;;8280433;28;20151;-76
2023/06/22 17:14:23;;;;;;;;;;;31.10;98.60;;;;;;8277788;28;20332;-77
2023/06/22 17:18:27;;;;;;;;;;;30.80;99.00;;;;;;8278888;28;20157;-76
2023/06/22 17:22:35;;;;;;;;;;;30.30;97.80;;;;;;8280117;28;19917;-77
2023/06/22 17:26:35;;;;;;;;;;;30.10;98.60;;;;;;8278065;28;19917;-77
2023/06/22 17:30:36;;;;;;;;;;;29.90;99.00;;;;;;8279084;28;19944;-76
2023/06/22 17:34:36;;;;;;;;;;;29.70;99.20;;;;;;8279700;28;20398;-76
2023/06/22 17:38:37;;;;;;;;;;;29.40;99.70;;;;;;8280194;28;19925;-76
2023/06/22 17:42:37;;;;;;;;;;;29.10;99.90;;;;;;8282443;28;19929;-76
2023/06/22 17:46:38;;;;;;;;;;;28.80;99.90;;;;;;8284078;28;19917;-76
2023/06/22 17:50:39;;;;;;;;;;;28.70;99.90;;;;;;8281506;28;20441;-77
2023/06/22 17:54:40;;;;;;;;;;;28.20;99.90;;;;;;8282391;28;19913;-77
2023/06/22 17:58:49;;;;;;;;;;;27.90;99.90;;;;;;8283460;28;20027;-77
2023/06/22 18:02:50;;;;;;;;;;;27.60;99.90;;;;;;8280397;28;19917;-77
2023/06/22 18:06:50;;;;;;;;;;;27.40;99.90;;;;;;8278030;28;20036;-75
2023/06/22 18:10:53;;;;;;;;;;;27.10;99.90;;;;;;8275199;28;19971;-78
2023/06/22 18:14:54;;;;;;;;;;;27.00;99.90;;;;;;8268835;28;19917;-77
2023/06/22 18:18:54;;;;;;;;;;;26.60;99.90;;;;;;8277129;28;19917;-76
2023/06/22 18:22:55;;;;;;;;;;;26.50;99.90;;;;;;8278523;28;19921;-76
2023/06/22 18:26:56;;;;;;;;;;;26.40;99.90;;;;;;8279097;28;19918;-76
2023/06/22 18:30:57;;;;;;;;;;;26.00;99.90;;;;;;8277439;28;20507;-76
2023/06/22 18:34:58;;;;;;;;;;;25.60;99.90;;;;;;8276523;28;19925;-76
2023/06/22 18:39:01;;;;;;;;;;;25.50;99.60;;;;;;8301787;28;19925;-76
2023/06/22 18:43:01;;;;;;;;;;;25.40;99.90;;;;;;8302099;28;19991;-76
2023/06/22 18:47:06;;;;;;;;;;;24.60;99.90;;;;;;8277927;28;19940;-75
2023/06/22 18:51:10;;;;;;;;;;;23.30;99.90;;;;;;8278441;28;20133;-76
2023/06/22 18:55:12;;;;;;;;;;;21.50;99.90;;;;;;8276289;28;20469;-75
2023/06/22 18:59:12;;;;;;;;;;;21.00;99.90;;;;;;8279593;28;19930;-76
2023/06/22 19:03:22;;;;;;;;;;;20.70;99.90;;;;;;8276503;28;20111;-76
2023/06/22 19:07:42;;;;;;;;;;;20.30;99.90;;;;;;8275387;28;20337;-76
2023/06/22 19:11:43;;;;;;;;;;;20.70;99.90;;;;;;8277374;28;19917;-76
2023/06/22 19:15:43;;;;;;;;;;;20.50;99.90;;;;;;8272690;28;20071;-75
2023/06/22 19:19:45;;;;;;;;;;;21.00;99.90;;;;;;8274746;28;19953;-76
2023/06/22 19:23:46;;;;;;;;;;;21.10;99.90;;;;;;8269384;28;19996;-76
2023/06/22 19:27:47;;;;;;;;;;;21.30;99.90;;;;;;8274383;28;20464;-76
2023/06/22 19:31:49;;;;;;;;;;;21.30;99.90;;;;;;8274078;28;20001;-76
2023/06/22 19:35:50;;;;;;;;;;;21.20;99.90;;;;;;8271775;28;19924;-76
2023/06/22 19:39:51;;;;;;;;;;;21.90;99.90;;;;;;8274720;28;19956;-77
2023/06/22 19:43:51;;;;;;;;;;;21.50;99.90;;;;;;8274885;28;19917;-76
2023/06/22 19:47:52;;;;;;;;;;;21.30;99.90;;;;;;8274075;28;20656;-75
2023/06/22 19:51:53;;;;;;;;;;;21.30;99.90;;;;;;8274135;28;19975;-75
2023/06/22 19:55:53;;;;;;;;;;;21.40;99.90;;;;;;8274547;28;19983;-75
2023/06/22 19:59:54;;;;;;;;;;;21.20;99.90;;;;;;8274359;28;19917;-75
2023/06/22 20:03:55;;;;;;;;;;;21.30;99.90;;;;;;8272758;28;19924;-75
2023/06/22 20:07:55;;;;;;;;;;;21.10;99.90;;;;;;8278475;28;19975;-75
2023/06/22 20:11:56;;;;;;;;;;;20.70;99.90;;;;;;8277367;28;19976;-75
2023/06/22 20:15:56;;;;;;;;;;;20.70;99.90;;;;;;8276565;28;19913;-75
2023/06/22 20:19:57;;;;;;;;;;;20.70;99.90;;;;;;8285215;28;19924;-75
2023/06/22 20:24:07;;;;;;;;;;;20.90;99.90;;;;;;8277347;28;19917;-76
2023/06/22 20:28:12;;;;;;;;;;;20.70;99.90;;;;;;8279479;28;19921;-78
2023/06/22 20:32:13;;;;;;;;;;;20.70;99.90;;;;;;8277865;28;19925;-76
2023/06/22 20:36:16;;;;;;;;;;;20.50;99.90;;;;;;8277025;28;19945;-75
2023/06/22 20:40:16;;;;;;;;;;;20.50;99.90;;;;;;8283611;28;19924;-77
2023/06/22 20:44:17;;;;;;;;;;;20.30;99.90;;;;;;8299097;28;19921;-76
2023/06/22 20:48:21;;;;;;;;;;;20.30;99.90;;;;;;8285823;28;19917;-77
2023/06/22 20:52:21;;;;;;;;;;;20.20;99.90;;;;;;8275361;28;19960;-76
2023/06/22 20:56:23;;;;;;;;;;;20.10;99.90;;;;;;8277552;28;19922;-77
2023/06/22 21:00:24;;;;;;;;;;;20.00;99.90;;;;;;8284486;28;19996;-76
2023/06/22 21:04:24;;;;;;;;;;;20.30;99.90;;;;;;8291700;28;19929;-76
2023/06/22 21:08:25;;;;;;;;;;;19.90;99.90;;;;;;8283023;28;19918;-76
2023/06/22 21:12:26;;;;;;;;;;;20.10;99.90;;;;;;8284260;28;19928;-78
2023/06/22 21:16:26;;;;;;;;;;;20.00;99.90;;;;;;8285182;28;19953;-78
2023/06/22 21:20:27;;;;;;;;;;;20.60;99.90;;;;;;8283858;28;19924;-77
2023/06/22 21:24:27;;;;;;;;;;;20.10;99.90;;;;;;8282200;28;19914;-77
2023/06/22 21:28:28;;;;;;;;;;;20.10;99.90;;;;;;8282027;28;20310;-77
2023/06/22 21:32:28;;;;;;;;;;;20.10;99.90;;;;;;8285963;28;20294;-77
2023/06/22 21:36:29;;;;;;;;;;;19.90;99.90;;;;;;8285102;28;19909;-76
2023/06/22 21:40:29;;;;;;;;;;;20.20;99.90;;;;;;8284465;28;19910;-76
2023/06/22 21:44:29;;;;;;;;;;;20.60;99.90;;;;;;8291264;28;19914;-77
2023/06/22 21:48:30;;;;;;;;;;;20.30;99.90;;;;;;8285571;28;19913;-75
2023/06/22 21:52:31;;;;;;;;;;;20.50;99.90;;;;;;8283256;28;20630;-76
2023/06/22 21:56:31;;;;;;;;;;;20.30;99.90;;;;;;8285301;28;20017;-78
2023/06/22 22:00:32;;;;;;;;;;;20.10;99.90;;;;;;8283638;28;19910;-77
2023/06/22 22:04:32;;;;;;;;;;;20.60;99.90;;;;;;8282620;28;19924;-77
2023/06/22 22:08:32;;;;;;;;;;;20.20;99.90;;;;;;8285197;28;19921;-77
2023/06/22 22:12:34;;;;;;;;;;;19.40;99.90;;;;;;8284774;28;19917;-78
2023/06/22 22:16:35;;;;;;;;;;;19.80;99.90;;;;;;8285505;28;20096;-77
2023/06/22 22:20:35;;;;;;;;;;;19.30;99.90;;;;;;8283462;28;19921;-78
2023/06/22 22:24:36;;;;;;;;;;;19.00;99.90;;;;;;8282325;28;19994;-76
2023/06/22 22:28:36;;;;;;;;;;;19.00;99.90;;;;;;8281497;28;19917;-77
2023/06/22 22:32:37;;;;;;;;;;;19.30;99.90;;;;;;8281519;28;19961;-77
2023/06/22 22:36:39;;;;;;;;;;;19.20;99.90;;;;;;8280921;28;21535;-78
2023/06/22 22:40:39;;;;;;;;;;;19.30;99.90;;;;;;8282925;28;19910;-77
2023/06/22 22:44:40;;;;;;;;;;;19.30;99.90;;;;;;8282922;28;19948;-78
2023/06/22 22:48:40;;;;;;;;;;;19.20;99.90;;;;;;8282296;28;20396;-77
2023/06/22 22:52:41;;;;;;;;;;;19.20;99.90;;;;;;8281680;28;19964;-76
2023/06/22 22:56:41;;;;;;;;;;;19.10;99.90;;;;;;8281755;28;20394;-76
2023/06/22 23:00:42;;;;;;;;;;;19.20;99.90;;;;;;8280414;28;19932;-76
2023/06/22 23:04:42;;;;;;;;;;;19.40;99.90;;;;;;8279621;28;19961;-76
2023/06/22 23:08:43;;;;;;;;;;;19.20;99.90;;;;;;8280743;28;19996;-77
2023/06/22 23:12:43;;;;;;;;;;;19.10;99.90;;;;;;8279228;28;19914;-76
2023/06/22 23:16:43;;;;;;;;;;;19.00;99.90;;;;;;8280847;28;19956;-76
2023/06/22 23:20:44;;;;;;;;;;;19.10;99.90;;;;;;8280135;28;19920;-76
2023/06/22 23:24:45;;;;;;;;;;;18.90;99.90;;;;;;8279514;28;19914;-77